createdAt,value
2023-03-22T00:01:16.597Z,99115.25
2023-03-22T00:03:43.302Z,99116.56
2023-03-22T00:06:10.210Z,99108.97
2023-03-22T00:08:36.800Z,99107.41
2023-03-22T00:11:04.475Z,99105.06
2023-03-22T00:13:34.435Z,99102.97
2023-03-22T00:16:02.783Z,99112.91
2023-03-22T00:18:30.169Z,99107.75
2023-03-22T00:20:58.429Z,99105.69
2023-03-22T00:23:25.577Z,99107.75
2023-03-22T00:25:52.820Z,99105.06
2023-03-22T00:28:19.691Z,99101.69
2023-03-22T00:31:00.906Z,99102.19
2023-03-22T00:33:28.992Z,99099.59
2023-03-22T00:36:04.294Z,99089.38
2023-03-22T00:38:42.822Z,99090.41
2023-03-22T00:41:11.573Z,99087.53
2023-03-22T00:43:38.448Z,99079.97
2023-03-22T00:46:06.014Z,99078.44
2023-03-22T00:48:32.966Z,99066.94
2023-03-22T00:50:59.868Z,99068.47
2023-03-22T00:53:29.037Z,99066.97
2023-03-22T00:55:59.580Z,99058.16
2023-03-22T00:58:27.740Z,99059.53
2023-03-22T01:00:54.443Z,99057.47
2023-03-22T01:03:21.941Z,99064.06
2023-03-22T01:05:49.442Z,99066.50
2023-03-22T01:08:16.606Z,99057.94
2023-03-22T01:10:44.471Z,99056.63
2023-03-22T01:13:13.523Z,99059.53
2023-03-22T01:15:41.386Z,99064.31
2023-03-22T01:18:08.855Z,99058.34
2023-03-22T01:20:36.732Z,99055.56
2023-03-22T01:23:04.066Z,99064.22
2023-03-22T01:25:31.038Z,99060.88
2023-03-22T01:27:57.628Z,99057.00
2023-03-22T01:30:24.242Z,99047.09
2023-03-22T01:32:51.334Z,99044.78
2023-03-22T01:35:17.959Z,99035.69
2023-03-22T01:37:44.638Z,99041.97
2023-03-22T01:40:13.664Z,99044.91
2023-03-22T01:42:40.866Z,99039.75
2023-03-22T01:45:16.724Z,99038.44
2023-03-22T01:47:56.225Z,99029.88
2023-03-22T01:50:24.603Z,99037.47
2023-03-22T01:52:53.085Z,99027.38
2023-03-22T01:55:28.080Z,99027.13
2023-03-22T01:58:18.252Z,99037.84
2023-03-22T02:00:56.554Z,99034.25
2023-03-22T02:03:45.877Z,99033.00
2023-03-22T02:06:14.724Z,99027.81
2023-03-22T02:08:42.510Z,99021.56
2023-03-22T02:11:17.380Z,99025.22
2023-03-22T02:14:09.118Z,99024.72
2023-03-22T02:17:07.506Z,99032.75
2023-03-22T02:19:45.460Z,99029.41
2023-03-22T02:22:53.569Z,99029.94
2023-03-22T02:25:42.083Z,99022.16
2023-03-22T02:28:12.190Z,99028.94
2023-03-22T02:30:57.205Z,99028.16
2023-03-22T02:33:57.396Z,99026.06
2023-03-22T02:36:36.552Z,99029.19
2023-03-22T02:39:40.481Z,99026.34
2023-03-22T02:42:34.969Z,99021.94
2023-03-22T02:45:27.710Z,99018.53
2023-03-22T02:47:54.463Z,99025.81
2023-03-22T02:50:40.414Z,99020.88
2023-03-22T02:53:13.348Z,99022.41
2023-03-22T02:55:46.338Z,99019.53
2023-03-22T02:58:18.060Z,99009.13
2023-03-22T03:00:49.390Z,99005.75
2023-03-22T03:03:18.432Z,99017.19
2023-03-22T03:05:50.896Z,99013.03
2023-03-22T03:08:20.671Z,99012.00
2023-03-22T03:10:48.387Z,99015.38
2023-03-22T03:13:17.789Z,99012.00
2023-03-22T03:15:48.724Z,99009.41
2023-03-22T03:18:49.348Z,99009.66
2023-03-22T03:21:35.547Z,99018.00
2023-03-22T03:24:18.696Z,99007.88
2023-03-22T03:27:04.026Z,99012.56
2023-03-22T03:29:55.251Z,99010.22
2023-03-22T03:32:31.834Z,99015.16
2023-03-22T03:35:22.393Z,99013.88
2023-03-22T03:38:01.418Z,99002.19
2023-03-22T03:40:36.130Z,99002.72
2023-03-22T03:43:06.385Z,99012.06
2023-03-22T03:45:35.928Z,99009.22
2023-03-22T03:48:06.592Z,99010.78
2023-03-22T03:50:33.449Z,99018.84
2023-03-22T03:53:00.151Z,99009.22
2023-03-22T03:55:28.560Z,99011.56
2023-03-22T03:57:55.432Z,99006.63
2023-03-22T04:00:22.191Z,99014.94
2023-03-22T04:03:09.524Z,99014.16
2023-03-22T04:05:59.781Z,99010.53
2023-03-22T04:08:27.496Z,99007.41
2023-03-22T04:10:54.263Z,99013.63
2023-03-22T04:13:21.862Z,99009.75
2023-03-22T04:15:53.382Z,99016.50
2023-03-22T04:18:21.264Z,99015.19
2023-03-22T04:20:49.576Z,99015.97
2023-03-22T04:23:16.876Z,99009.75
2023-03-22T04:25:50.089Z,99014.16
2023-03-22T04:28:23.994Z,99012.34
2023-03-22T04:30:52.345Z,99013.38
2023-03-22T04:33:39.453Z,99010.00
2023-03-22T04:36:31.121Z,99015.69
2023-03-22T04:39:27.554Z,99014.66
2023-03-22T04:42:08.812Z,99007.88
2023-03-22T04:44:35.480Z,99011.25
2023-03-22T04:47:02.531Z,99008.66
2023-03-22T04:49:29.336Z,99012.81
2023-03-22T04:51:56.165Z,99007.59
2023-03-22T04:54:30.518Z,99003.19
2023-03-22T05:00:08.477Z,99006.56
2023-03-22T05:02:39.961Z,99007.06
2023-03-22T05:05:10.862Z,99010.97
2023-03-22T05:07:40.294Z,99005.53
2023-03-22T05:10:09.118Z,99002.66
2023-03-22T05:12:35.748Z,99006.31
2023-03-22T05:15:15.446Z,99005.78
2023-03-22T05:17:42.432Z,98997.16
2023-03-22T05:20:11.585Z,98995.84
2023-03-22T05:22:41.062Z,98998.72
2023-03-22T05:25:10.757Z,99004.94
2023-03-22T05:27:40.155Z,99000.25
2023-03-22T05:30:24.143Z,99005.72
2023-03-22T05:33:05.167Z,99006.75
2023-03-22T05:35:39.684Z,99004.41
2023-03-22T05:38:08.606Z,99003.38
2023-03-22T05:40:38.023Z,99006.47
2023-03-22T05:43:05.248Z,99008.81
2023-03-22T05:45:32.540Z,99004.13
2023-03-22T05:48:22.310Z,99000.97
2023-03-22T05:50:49.597Z,99004.06
2023-03-22T05:53:16.291Z,99009.78
2023-03-22T05:55:48.496Z,98999.09
2023-03-22T05:58:19.013Z,99004.31
2023-03-22T06:00:51.415Z,98994.66
2023-03-22T06:03:21.220Z,98996.47
2023-03-22T06:06:11.074Z,98992.00
2023-03-22T06:09:04.292Z,98988.06
2023-03-22T06:11:41.238Z,98995.06
2023-03-22T06:14:08.309Z,99006.50
2023-03-22T06:16:50.924Z,98998.63
2023-03-22T06:19:17.707Z,98992.06
2023-03-22T06:21:44.362Z,98999.63
2023-03-22T06:24:13.737Z,98983.94
2023-03-22T06:26:40.314Z,98981.31
2023-03-22T06:29:06.895Z,98980.22
2023-03-22T06:31:33.631Z,98972.44
2023-03-22T06:34:04.715Z,98988.59
2023-03-22T06:36:42.260Z,98983.84
2023-03-22T06:39:15.261Z,98989.28
2023-03-22T06:41:44.246Z,98986.44
2023-03-22T06:44:11.211Z,98992.44
2023-03-22T06:46:57.041Z,98986.19
2023-03-22T06:49:46.771Z,98985.88
2023-03-22T06:52:24.006Z,98985.84
2023-03-22T06:54:51.379Z,98986.34
2023-03-22T06:57:18.071Z,98993.06
2023-03-22T06:59:45.766Z,98989.38
2023-03-22T07:02:13.388Z,98988.03
2023-03-22T07:04:47.111Z,98988.78
2023-03-22T07:07:14.112Z,98990.28
2023-03-22T07:09:40.976Z,98986.84
2023-03-22T07:12:07.926Z,98985.25
2023-03-22T07:14:35.108Z,98988.03
2023-03-22T07:17:14.127Z,98984.03
2023-03-22T07:19:42.636Z,98981.97
2023-03-22T07:22:10.736Z,98990.53
2023-03-22T07:24:47.210Z,98990.47
2023-03-22T07:27:21.207Z,98983.66
2023-03-22T07:29:49.155Z,98982.31
2023-03-22T07:32:16.334Z,98989.38
2023-03-22T07:35:09.582Z,98989.53
2023-03-22T07:37:36.610Z,98985.59
2023-03-22T07:40:08.891Z,98983.97
2023-03-22T07:42:36.718Z,98987.56
2023-03-22T07:45:22.724Z,98992.44
2023-03-22T07:48:13.346Z,98983.41
2023-03-22T07:51:06.060Z,98976.72
2023-03-22T07:53:32.696Z,98982.09
2023-03-22T07:55:59.300Z,98986.94
2023-03-22T07:58:25.899Z,98982.16
2023-03-22T08:00:52.565Z,98982.84
2023-03-22T08:03:51.656Z,98985.59
2023-03-22T08:06:58.690Z,98984.88
2023-03-22T08:09:26.849Z,98983.00
2023-03-22T08:11:53.404Z,98976.75
2023-03-22T08:14:27.494Z,98989.91
2023-03-22T08:17:04.576Z,98996.06
2023-03-22T08:19:33.147Z,98990.34
2023-03-22T08:22:00.054Z,98992.59
2023-03-22T08:24:46.938Z,98992.00
2023-03-22T08:27:24.894Z,98994.53
2023-03-22T08:29:51.612Z,98988.22
2023-03-22T08:32:18.801Z,98987.66
2023-03-22T08:34:45.570Z,98988.81
2023-03-22T08:37:13.080Z,98985.38
2023-03-22T08:39:40.860Z,98978.28
2023-03-22T08:42:19.504Z,98980.28
2023-03-22T08:44:46.657Z,98982.25
2023-03-22T08:47:14.147Z,98976.19
2023-03-22T08:49:43.193Z,98990.28
2023-03-22T08:52:27.593Z,98979.09
2023-03-22T08:54:59.661Z,98979.19
2023-03-22T08:57:44.778Z,98980.28
2023-03-22T09:00:39.134Z,98979.19
2023-03-22T09:03:23.992Z,98979.94
2023-03-22T09:05:51.073Z,98979.94
2023-03-22T09:08:19.560Z,98975.75
2023-03-22T09:10:52.010Z,98974.19
2023-03-22T09:13:20.942Z,98972.34
2023-03-22T09:15:54.040Z,98975.16
2023-03-22T09:18:27.170Z,98972.06
2023-03-22T09:20:57.436Z,98969.13
2023-03-22T09:23:31.863Z,98958.22
2023-03-22T09:26:07.085Z,98962.16
2023-03-22T09:28:35.908Z,98956.22
2023-03-22T09:31:06.835Z,98955.81
2023-03-22T09:33:36.084Z,98949.41
2023-03-22T09:36:03.402Z,98943.03
2023-03-22T09:38:33.905Z,98932.88
2023-03-22T09:41:18.572Z,98943.22
2023-03-22T09:43:55.554Z,98931.16
2023-03-22T09:46:37.294Z,98929.88
2023-03-22T09:49:10.437Z,98928.00
2023-03-22T09:51:39.492Z,98925.78
2023-03-22T09:54:21.318Z,98925.88
2023-03-22T09:56:59.477Z,98924.59
2023-03-22T09:59:41.036Z,98924.97
2023-03-22T10:02:31.966Z,98922.84
2023-03-22T10:05:13.528Z,98918.09
2023-03-22T10:07:48.967Z,98910.69
2023-03-22T10:10:20.159Z,98901.38
2023-03-22T10:13:13.786Z,98906.03
2023-03-22T10:15:46.924Z,98897.59
2023-03-22T10:18:37.440Z,98908.47
2023-03-22T10:21:10.796Z,98908.38
2023-03-22T10:23:49.090Z,98907.84
2023-03-22T10:26:36.914Z,98901.06
2023-03-22T10:29:23.060Z,98893.63
2023-03-22T10:31:50.010Z,98886.25
2023-03-22T10:34:24.183Z,98886.56
2023-03-22T10:36:52.836Z,98878.88
2023-03-22T10:39:29.470Z,98874.00
2023-03-22T10:41:58.753Z,98888.59
2023-03-22T10:44:28.087Z,98865.81
2023-03-22T10:46:57.384Z,98872.63
2023-03-22T10:49:35.602Z,98865.03
2023-03-22T10:52:10.962Z,98859.31
2023-03-22T10:54:37.597Z,98861.66
2023-03-22T10:57:04.261Z,98859.53
2023-03-22T10:59:52.077Z,98850.03
2023-03-22T11:02:31.315Z,98850.81
2023-03-22T11:05:01.193Z,98856.81
2023-03-22T11:07:35.448Z,98855.41
2023-03-22T11:10:10.793Z,98857.56
2023-03-22T11:12:50.852Z,98855.13
2023-03-22T11:15:27.923Z,98847.75
2023-03-22T11:18:00.125Z,98839.41
2023-03-22T11:20:29.943Z,98841.63
2023-03-22T11:23:02.701Z,98829.38
2023-03-22T11:25:32.159Z,98822.56
2023-03-22T11:28:19.180Z,98822.34
2023-03-22T11:31:03.064Z,98816.25
2023-03-22T11:33:31.099Z,98814.97
2023-03-22T11:36:00.558Z,98814.19
2023-03-22T11:38:36.954Z,98801.88
2023-03-22T11:41:31.072Z,98798.91
2023-03-22T11:44:04.362Z,98796.81
2023-03-22T11:46:32.661Z,98786.28
2023-03-22T11:49:03.149Z,98793.28
2023-03-22T11:51:35.364Z,98782.44
2023-03-22T11:54:34.885Z,98781.91
2023-03-22T11:57:05.844Z,98771.75
2023-03-22T12:00:11.321Z,98775.59
2023-03-22T12:03:13.824Z,98760.00
2023-03-22T12:05:44.117Z,98753.63
2023-03-22T12:08:18.895Z,98758.22
2023-03-22T12:10:51.396Z,98762.72
2023-03-22T12:13:21.155Z,98764.59
2023-03-22T12:15:56.581Z,98752.53
2023-03-22T12:18:30.884Z,98744.53
2023-03-22T12:20:59.850Z,98746.72
2023-03-22T12:23:35.225Z,98743.34
2023-03-22T12:26:07.456Z,98736.28
2023-03-22T12:28:41.969Z,98737.34
2023-03-22T12:31:17.334Z,98734.31
2023-03-22T12:34:18.333Z,98740.78
2023-03-22T12:36:46.852Z,98738.13
2023-03-22T12:39:26.129Z,98722.06
2023-03-22T12:41:56.121Z,98727.69
2023-03-22T12:44:40.368Z,98722.63
2023-03-22T12:47:17.217Z,98723.09
2023-03-22T12:49:52.293Z,98721.53
2023-03-22T12:52:37.662Z,98722.34
2023-03-22T12:55:29.598Z,98720.13
2023-03-22T12:57:58.435Z,98706.22
2023-03-22T13:00:35.339Z,98708.94
2023-03-22T13:03:23.054Z,98721.09
2023-03-22T13:06:01.201Z,98717.91
2023-03-22T13:09:12.997Z,98711.31
2023-03-22T13:11:39.860Z,98705.28
2023-03-22T13:14:06.798Z,98707.34
2023-03-22T13:16:49.955Z,98708.06
2023-03-22T13:19:34.604Z,98694.81
2023-03-22T13:22:15.789Z,98694.38
2023-03-22T13:25:13.499Z,98695.75
2023-03-22T13:27:53.812Z,98689.94
2023-03-22T13:30:20.486Z,98689.66
2023-03-22T13:33:21.299Z,98686.31
2023-03-22T13:35:54.912Z,98684.75
2023-03-22T13:38:25.940Z,98689.84
2023-03-22T13:41:04.362Z,98677.03
2023-03-22T13:43:43.360Z,98681.03
2023-03-22T13:46:28.273Z,98673.09
2023-03-22T13:49:36.022Z,98668.31
2023-03-22T13:52:08.099Z,98667.91
2023-03-22T13:54:42.480Z,98655.03
2023-03-22T13:57:47.663Z,98661.06
2023-03-22T14:00:29.364Z,98659.56
2023-03-22T14:03:02.412Z,98649.44
2023-03-22T14:05:35.252Z,98652.50
2023-03-22T14:08:02.919Z,98650.44
2023-03-22T14:10:40.773Z,98646.38
2023-03-22T14:13:42.251Z,98647.19
2023-03-22T14:16:18.491Z,98634.16
2023-03-22T14:18:48.581Z,98637.16
2023-03-22T14:21:23.581Z,98631.25
